Union, WV

11:44 PM EST on December 24, 2014 (GMT -0500)
Greenbrier Valley | Change Station
CLOSE
Current Station
Airport
Location: Lewisburg,
Elevation: 2303 ft
Nearby Weather Stations

Elev 2303 ft 37.86 °N, 80.40 °W | Updated 9 minutes ago

Overcast
Overcast
47 °F
Feels Like 47 °F
N
13
Wind Variable Wind from West
Gusts 17 mph

Today
High -- | Low -- °F
--% Chance of Precip.
Yesterday
High -- | Low -- °F
Precip. -- in
7:34 AM 5:08 PM
Waxing Crescent, 13% visible
Pressure 29.74 in
Visibility 10.0 miles
Clouds Scattered Clouds 1800 ft
Mostly Cloudy 2500 ft
Overcast 4200 ft
Dew Point 40 °F
Humidity 77%
Rainfall 0.62 in
Snow Depth Not available.
UV 0 out of 12
Pollen .10 out of 12
Air Quality Not available.
Flu Activity Not available.
METAR KLWB 250435Z AUTO 27011G15KT 10SM SCT018 BKN025 OVC042 08/05 A2974 RMK AO2 T00840046

More Conditions Fewer Conditions

Pressure 29.74 in
Visibility 10.0 miles
Clouds Scattered Clouds 1800 ft
Mostly Cloudy 2500 ft
Overcast 4200 ft
Dew Point 40 °F
Humidity 77%
Rainfall 0.62 in
Snow Depth Not available.
UV 0 out of 12
Pollen .10 out of 12
Air Quality Not available.
Flu Activity Not available.
METAR KLWB 250435Z AUTO 27011G15KT 10SM SCT018 BKN025 OVC042 08/05 A2974 RMK AO2 T00840046

More Conditions Fewer Conditions

10-Day Weather Forecast

Almanac

Astronomy

Dec. 24, 2014 Rise Set
Actual Time
Civil Twilight
Nautical Twilight
Astronomical Twilight
Moon
Length of Visible Light
Length of Day
Tomorrow will be .
, % of the Moon is Illuminated

Today's Extremes

State Highs State Lows

Community

WunderPhotos

Upload Photos

1,780,238 photos uploaded!

WunderBlogs® & News

Nearby

Air Quality

  Air Quality AQ Index Pollutant
Not available.

Snow Depth

Station Depth Elevation

Earthquake Activity

City Distance Mag. Time & Date
Minimum magnitude displayed is 2.5.

Coastal Water Temperatures

Place Temperature

Nearby Weather Stations